sensor_id;sensor_type;location;lat;lon;timestamp;pressure;altitude;pressure_sealevel;temperature;humidity
82152;BME280;71721;47.904;-122.188;2023-08-07T00:00:13;100915.21;;;17.02;37.15
82152;BME280;71721;47.904;-122.188;2023-08-07T00:02:38;100915.22;;;14.92;38.98
82152;BME280;71721;47.904;-122.188;2023-08-07T00:05:04;100914.22;;;15.73;38.04
82152;BME280;71721;47.904;-122.188;2023-08-07T00:07:29;100906.78;;;17.42;35.95
82152;BME280;71721;47.904;-122.188;2023-08-07T00:09:54;100904.58;;;18.76;34.48
82152;BME280;71721;47.904;-122.188;2023-08-07T00:12:25;100903.28;;;17.07;35.26
82152;BME280;71721;47.904;-122.188;2023-08-07T00:14:51;100904.90;;;16.03;36.01
82152;BME280;71721;47.904;-122.188;2023-08-07T00:17:09;100899.89;;;18.25;34.59
82152;BME280;71721;47.904;-122.188;2023-08-07T00:19:39;100903.19;;;19.28;33.18
82152;BME280;71721;47.904;-122.188;2023-08-07T00:22:00;100899.96;;;17.91;34.58
82152;BME280;71721;47.904;-122.188;2023-08-07T00:24:25;100904.23;;;14.96;38.17
82152;BME280;71721;47.904;-122.188;2023-08-07T00:26:50;100908.53;;;14.27;38.52
82152;BME280;71721;47.904;-122.188;2023-08-07T00:29:15;100899.46;;;16.78;36.15
82152;BME280;71721;47.904;-122.188;2023-08-07T00:31:40;100901.85;;;15.36;36.84
82152;BME280;71721;47.904;-122.188;2023-08-07T00:34:10;100898.39;;;15.93;36.14
82152;BME280;71721;47.904;-122.188;2023-08-07T00:36:39;100897.90;;;15.29;36.38
82152;BME280;71721;47.904;-122.188;2023-08-07T00:38:55;100902.54;;;15.68;36.92
82152;BME280;71721;47.904;-122.188;2023-08-07T00:41:21;100910.60;;;14.27;40.43
82152;BME280;71721;47.904;-122.188;2023-08-07T00:43:47;100902.74;;;13.83;41.85
82152;BME280;71721;47.904;-122.188;2023-08-07T00:46:11;100907.85;;;13.43;42.83
82152;BME280;71721;47.904;-122.188;2023-08-07T00:48:36;100907.45;;;13.28;43.63
82152;BME280;71721;47.904;-122.188;2023-08-07T00:51:02;100908.76;;;13.65;42.11
82152;BME280;71721;47.904;-122.188;2023-08-07T00:53:28;100906.13;;;14.76;39.93
82152;BME280;71721;47.904;-122.188;2023-08-07T00:55:52;100927.38;;;14.56;40.28
82152;BME280;71721;47.904;-122.188;2023-08-07T00:58:17;100914.12;;;15.54;38.54
82152;BME280;71721;47.904;-122.188;2023-08-07T01:00:42;100900.58;;;16.07;37.77
82152;BME280;71721;47.904;-122.188;2023-08-07T01:03:08;100904.49;;;14.97;38.34
82152;BME280;71721;47.904;-122.188;2023-08-07T01:05:42;100913.35;;;14.46;39.45
82152;BME280;71721;47.904;-122.188;2023-08-07T01:07:58;100912.35;;;14.61;40.08
82152;BME280;71721;47.904;-122.188;2023-08-07T01:10:29;100914.31;;;14.41;40.80
82152;BME280;71721;47.904;-122.188;2023-08-07T01:12:55;100916.10;;;12.85;43.01
82152;BME280;71721;47.904;-122.188;2023-08-07T01:15:16;100913.83;;;13.59;41.45
82152;BME280;71721;47.904;-122.188;2023-08-07T01:17:39;100914.11;;;13.79;42.25
82152;BME280;71721;47.904;-122.188;2023-08-07T01:20:07;100914.03;;;11.48;46.09
82152;BME280;71721;47.904;-122.188;2023-08-07T01:22:28;100909.91;;;11.40;46.22
82152;BME280;71721;47.904;-122.188;2023-08-07T01:24:54;100908.58;;;11.74;46.88
82152;BME280;71721;47.904;-122.188;2023-08-07T01:27:30;100913.83;;;11.16;48.41
82152;BME280;71721;47.904;-122.188;2023-08-07T01:29:55;100914.96;;;11.23;48.40
82152;BME280;71721;47.904;-122.188;2023-08-07T01:32:11;100919.37;;;10.12;50.98
82152;BME280;71721;47.904;-122.188;2023-08-07T01:34:36;100913.12;;;9.97;50.46
82152;BME280;71721;47.904;-122.188;2023-08-07T01:37:01;100907.67;;;11.47;47.75
82152;BME280;71721;47.904;-122.188;2023-08-07T01:39:27;100903.27;;;13.30;43.97
82152;BME280;71721;47.904;-122.188;2023-08-07T01:41:53;100914.89;;;13.64;43.08
82152;BME280;71721;47.904;-122.188;2023-08-07T01:44:17;100907.25;;;10.40;52.12
82152;BME280;71721;47.904;-122.188;2023-08-07T01:46:41;100905.30;;;11.43;48.60
82152;BME280;71721;47.904;-122.188;2023-08-07T01:49:08;100906.30;;;12.41;46.07
82152;BME280;71721;47.904;-122.188;2023-08-07T01:51:33;100912.91;;;12.73;45.40
82152;BME280;71721;47.904;-122.188;2023-08-07T01:53:58;100910.66;;;11.95;46.12
82152;BME280;71721;47.904;-122.188;2023-08-07T01:56:24;100920.24;;;11.02;48.69
82152;BME280;71721;47.904;-122.188;2023-08-07T01:58:54;100919.70;;;9.81;52.31
82152;BME280;71721;47.904;-122.188;2023-08-07T02:01:15;100924.56;;;9.95;51.24
82152;BME280;71721;47.904;-122.188;2023-08-07T02:03:39;100926.70;;;10.31;51.10
82152;BME280;71721;47.904;-122.188;2023-08-07T02:06:05;100920.66;;;9.46;54.11
82152;BME280;71721;47.904;-122.188;2023-08-07T02:08:32;100926.17;;;9.62;54.54
82152;BME280;71721;47.904;-122.188;2023-08-07T02:10:56;100926.32;;;10.31;50.94
82152;BME280;71721;47.904;-122.188;2023-08-07T02:13:21;100939.78;;;9.66;51.49
82152;BME280;71721;47.904;-122.188;2023-08-07T02:15:47;100935.99;;;9.03;54.82
82152;BME280;71721;47.904;-122.188;2023-08-07T02:18:12;100937.71;;;8.46;57.76
82152;BME280;71721;47.904;-122.188;2023-08-07T02:20:37;100939.76;;;8.67;55.20
82152;BME280;71721;47.904;-122.188;2023-08-07T02:23:03;100946.18;;;9.08;54.17
82152;BME280;71721;47.904;-122.188;2023-08-07T02:25:35;100943.33;;;8.81;56.21
82152;BME280;71721;47.904;-122.188;2023-08-07T02:27:53;100943.88;;;8.67;55.90
82152;BME280;71721;47.904;-122.188;2023-08-07T02:30:18;100941.23;;;9.10;53.79
82152;BME280;71721;47.904;-122.188;2023-08-07T02:32:44;100944.87;;;9.76;50.77
82152;BME280;71721;47.904;-122.188;2023-08-07T02:35:11;100941.01;;;9.95;50.15
82152;BME280;71721;47.904;-122.188;2023-08-07T02:37:34;100938.61;;;12.43;46.66
82152;BME280;71721;47.904;-122.188;2023-08-07T02:40:00;100944.15;;;10.37;49.84
82152;BME280;71721;47.904;-122.188;2023-08-07T02:42:27;100945.17;;;10.02;49.15
82152;BME280;71721;47.904;-122.188;2023-08-07T02:44:51;100947.30;;;9.81;50.23
82152;BME280;71721;47.904;-122.188;2023-08-07T02:47:16;100942.39;;;9.91;51.12
82152;BME280;71721;47.904;-122.188;2023-08-07T02:49:41;100942.82;;;9.68;49.91
82152;BME280;71721;47.904;-122.188;2023-08-07T02:52:07;100940.77;;;11.04;47.41
82152;BME280;71721;47.904;-122.188;2023-08-07T02:54:33;100937.16;;;11.73;46.19
82152;BME280;71721;47.904;-122.188;2023-08-07T02:56:58;100939.97;;;11.21;46.96
82152;BME280;71721;47.904;-122.188;2023-08-07T02:59:28;100938.02;;;11.49;46.14
82152;BME280;71721;47.904;-122.188;2023-08-07T03:01:49;100941.32;;;12.57;43.63
82152;BME280;71721;47.904;-122.188;2023-08-07T03:04:13;100945.30;;;11.46;46.06
82152;BME280;71721;47.904;-122.188;2023-08-07T03:06:38;100949.17;;;10.95;47.18
82152;BME280;71721;47.904;-122.188;2023-08-07T03:09:03;100952.18;;;10.97;46.69
82152;BME280;71721;47.904;-122.188;2023-08-07T03:11:34;100952.15;;;9.47;50.61
82152;BME280;71721;47.904;-122.188;2023-08-07T03:13:54;100951.45;;;9.61;50.95
82152;BME280;71721;47.904;-122.188;2023-08-07T03:16:19;100955.42;;;10.47;48.23
82152;BME280;71721;47.904;-122.188;2023-08-07T03:18:44;100957.01;;;10.49;48.99
82152;BME280;71721;47.904;-122.188;2023-08-07T03:21:10;100955.55;;;10.08;49.39
82152;BME280;71721;47.904;-122.188;2023-08-07T03:23:35;100959.53;;;10.43;49.10
82152;BME280;71721;47.904;-122.188;2023-08-07T03:26:04;100954.67;;;11.49;46.55
82152;BME280;71721;47.904;-122.188;2023-08-07T03:28:26;100955.50;;;9.76;49.31
82152;BME280;71721;47.904;-122.188;2023-08-07T03:30:51;100955.33;;;11.44;45.92
82152;BME280;71721;47.904;-122.188;2023-08-07T03:33:16;100960.84;;;10.56;48.20
82152;BME280;71721;47.904;-122.188;2023-08-07T03:35:41;100960.53;;;11.07;47.15
82152;BME280;71721;47.904;-122.188;2023-08-07T03:38:07;100956.01;;;12.02;45.42
82152;BME280;71721;47.904;-122.188;2023-08-07T03:40:31;100951.71;;;11.91;45.40
82152;BME280;71721;47.904;-122.188;2023-08-07T03:42:57;100952.11;;;12.17;44.54
82152;BME280;71721;47.904;-122.188;2023-08-07T03:45:22;100955.43;;;12.20;44.90
82152;BME280;71721;47.904;-122.188;2023-08-07T03:47:47;100952.09;;;11.39;45.83
82152;BME280;71721;47.904;-122.188;2023-08-07T03:50:12;100950.08;;;11.82;45.24
82152;BME280;71721;47.904;-122.188;2023-08-07T03:52:38;100948.80;;;11.66;45.31
82152;BME280;71721;47.904;-122.188;2023-08-07T03:55:08;100954.71;;;10.09;48.30
82152;BME280;71721;47.904;-122.188;2023-08-07T03:57:28;100949.48;;;11.35;46.26
82152;BME280;71721;47.904;-122.188;2023-08-07T03:59:55;100955.08;;;9.49;48.54
82152;BME280;71721;47.904;-122.188;2023-08-07T04:02:19;100953.89;;;10.99;46.67
82152;BME280;71721;47.904;-122.188;2023-08-07T04:04:45;100954.81;;;9.90;49.74
82152;BME280;71721;47.904;-122.188;2023-08-07T04:07:10;100953.32;;;9.68;50.08
82152;BME280;71721;47.904;-122.188;2023-08-07T04:09:35;100954.49;;;10.48;47.40
82152;BME280;71721;47.904;-122.188;2023-08-07T04:12:00;100948.51;;;12.09;45.02
82152;BME280;71721;47.904;-122.188;2023-08-07T04:14:26;100950.98;;;11.48;45.31
82152;BME280;71721;47.904;-122.188;2023-08-07T04:16:51;100953.98;;;11.27;44.54
82152;BME280;71721;47.904;-122.188;2023-08-07T04:19:16;100957.41;;;11.63;44.53
82152;BME280;71721;47.904;-122.188;2023-08-07T04:21:41;100952.78;;;11.87;45.06
82152;BME280;71721;47.904;-122.188;2023-08-07T04:24:06;100948.71;;;12.33;43.30
82152;BME280;71721;47.904;-122.188;2023-08-07T04:26:31;100947.78;;;13.79;41.48
82152;BME280;71721;47.904;-122.188;2023-08-07T04:28:57;100946.48;;;13.48;41.25
82152;BME280;71721;47.904;-122.188;2023-08-07T04:31:28;100942.22;;;14.18;40.21
82152;BME280;71721;47.904;-122.188;2023-08-07T04:33:47;100943.44;;;14.27;39.95
82152;BME280;71721;47.904;-122.188;2023-08-07T04:36:12;100939.06;;;12.77;41.78
82152;BME280;71721;47.904;-122.188;2023-08-07T04:38:38;100941.87;;;11.19;44.33
82152;BME280;71721;47.904;-122.188;2023-08-07T04:41:23;100940.02;;;13.11;42.13
82152;BME280;71721;47.904;-122.188;2023-08-07T04:43:49;100941.94;;;13.69;40.69
82152;BME280;71721;47.904;-122.188;2023-08-07T04:46:14;100937.87;;;13.99;40.27
82152;BME280;71721;47.904;-122.188;2023-08-07T04:48:39;100939.75;;;11.95;42.72
82152;BME280;71721;47.904;-122.188;2023-08-07T04:51:05;100936.58;;;12.86;41.25
82152;BME280;71721;47.904;-122.188;2023-08-07T04:53:30;100939.57;;;12.14;41.69
82152;BME280;71721;47.904;-122.188;2023-08-07T04:55:55;100936.10;;;12.46;41.71
82152;BME280;71721;47.904;-122.188;2023-08-07T04:58:22;100936.51;;;13.43;40.31
82152;BME280;71721;47.904;-122.188;2023-08-07T05:00:46;100933.55;;;13.44;40.66
82152;BME280;71721;47.904;-122.188;2023-08-07T05:03:11;100932.57;;;14.00;39.76
82152;BME280;71721;47.904;-122.188;2023-08-07T05:05:36;100933.77;;;13.56;40.30
82152;BME280;71721;47.904;-122.188;2023-08-07T05:08:06;100935.55;;;13.48;40.64
82152;BME280;71721;47.904;-122.188;2023-08-07T05:10:27;100934.01;;;14.21;39.93
82152;BME280;71721;47.904;-122.188;2023-08-07T05:12:52;100935.64;;;13.32;40.26
82152;BME280;71721;47.904;-122.188;2023-08-07T05:15:17;100935.01;;;14.61;39.07
82152;BME280;71721;47.904;-122.188;2023-08-07T05:17:42;100932.56;;;12.83;41.90
82152;BME280;71721;47.904;-122.188;2023-08-07T05:20:09;100933.46;;;13.41;41.35
82152;BME280;71721;47.904;-122.188;2023-08-07T05:22:33;100929.46;;;13.04;41.40
82152;BME280;71721;47.904;-122.188;2023-08-07T05:24:58;100931.76;;;13.83;40.53
82152;BME280;71721;47.904;-122.188;2023-08-07T05:27:23;100928.49;;;14.24;40.28
82152;BME280;71721;47.904;-122.188;2023-08-07T05:29:49;100930.44;;;14.24;39.53
82152;BME280;71721;47.904;-122.188;2023-08-07T05:32:20;100926.56;;;14.11;39.66
82152;BME280;71721;47.904;-122.188;2023-08-07T05:34:39;100925.96;;;14.26;39.55
82152;BME280;71721;47.904;-122.188;2023-08-07T05:37:05;100923.38;;;14.07;39.67
82152;BME280;71721;47.904;-122.188;2023-08-07T05:39:29;100917.33;;;14.10;40.03
82152;BME280;71721;47.904;-122.188;2023-08-07T05:42:00;100916.08;;;14.36;39.60
82152;BME280;71721;47.904;-122.188;2023-08-07T05:44:20;100912.89;;;13.71;39.94
82152;BME280;71721;47.904;-122.188;2023-08-07T05:46:45;100912.46;;;14.52;39.40
82152;BME280;71721;47.904;-122.188;2023-08-07T05:49:11;100913.15;;;14.66;39.11
82152;BME280;71721;47.904;-122.188;2023-08-07T05:51:36;100915.45;;;14.26;39.58
82152;BME280;71721;47.904;-122.188;2023-08-07T05:54:02;100912.06;;;13.02;40.80
82152;BME280;71721;47.904;-122.188;2023-08-07T05:56:27;100912.98;;;14.29;39.81
82152;BME280;71721;47.904;-122.188;2023-08-07T05:58:52;100912.76;;;14.30;39.64
82152;BME280;71721;47.904;-122.188;2023-08-07T06:01:17;100912.55;;;13.69;40.51
82152;BME280;71721;47.904;-122.188;2023-08-07T06:03:42;100912.74;;;12.76;41.16
82152;BME280;71721;47.904;-122.188;2023-08-07T06:06:08;100916.99;;;12.42;42.45
82152;BME280;71721;47.904;-122.188;2023-08-07T06:08:33;100919.88;;;11.77;42.67
82152;BME280;71721;47.904;-122.188;2023-08-07T06:10:58;100922.54;;;11.76;43.50
82152;BME280;71721;47.904;-122.188;2023-08-07T06:13:23;100921.34;;;12.09;43.06
82152;BME280;71721;47.904;-122.188;2023-08-07T06:15:48;100921.26;;;12.48;42.69
82152;BME280;71721;47.904;-122.188;2023-08-07T06:18:13;100916.93;;;11.17;44.07
82152;BME280;71721;47.904;-122.188;2023-08-07T06:20:40;100917.35;;;12.08;43.23
82152;BME280;71721;47.904;-122.188;2023-08-07T06:23:04;100917.07;;;12.47;42.13
82152;BME280;71721;47.904;-122.188;2023-08-07T06:25:29;100919.26;;;12.78;42.04
82152;BME280;71721;47.904;-122.188;2023-08-07T06:28:01;100919.54;;;11.50;43.67
82152;BME280;71721;47.904;-122.188;2023-08-07T06:30:20;100919.01;;;10.87;44.32
82152;BME280;71721;47.904;-122.188;2023-08-07T06:32:45;100916.41;;;11.45;43.28
82152;BME280;71721;47.904;-122.188;2023-08-07T06:35:12;100914.00;;;11.16;43.85
82152;BME280;71721;47.904;-122.188;2023-08-07T06:37:35;100917.81;;;12.62;42.49
82152;BME280;71721;47.904;-122.188;2023-08-07T06:40:08;100913.89;;;11.05;43.87
82152;BME280;71721;47.904;-122.188;2023-08-07T06:42:26;100912.09;;;12.46;42.59
82152;BME280;71721;47.904;-122.188;2023-08-07T06:44:51;100907.10;;;12.99;41.52
82152;BME280;71721;47.904;-122.188;2023-08-07T06:47:17;100908.53;;;13.38;40.93
82152;BME280;71721;47.904;-122.188;2023-08-07T06:49:47;100903.90;;;13.64;40.56
82152;BME280;71721;47.904;-122.188;2023-08-07T06:52:07;100900.37;;;12.90;41.52
82152;BME280;71721;47.904;-122.188;2023-08-07T06:54:32;100901.60;;;13.79;40.77
82152;BME280;71721;47.904;-122.188;2023-08-07T06:56:58;100900.26;;;13.97;40.07
82152;BME280;71721;47.904;-122.188;2023-08-07T06:59:24;100900.94;;;13.95;40.12
82152;BME280;71721;47.904;-122.188;2023-08-07T07:01:49;100898.67;;;13.94;40.16
82152;BME280;71721;47.904;-122.188;2023-08-07T07:04:14;100895.75;;;14.03;40.00
82152;BME280;71721;47.904;-122.188;2023-08-07T07:06:39;100893.07;;;13.97;39.87
82152;BME280;71721;47.904;-122.188;2023-08-07T07:09:09;100891.64;;;13.82;40.50
82152;BME280;71721;47.904;-122.188;2023-08-07T07:11:29;100895.00;;;13.95;40.11
82152;BME280;71721;47.904;-122.188;2023-08-07T07:13:54;100898.94;;;14.07;39.88
82152;BME280;71721;47.904;-122.188;2023-08-07T07:16:21;100898.67;;;14.10;39.54
82152;BME280;71721;47.904;-122.188;2023-08-07T07:18:46;100894.71;;;13.31;40.70
82152;BME280;71721;47.904;-122.188;2023-08-07T07:21:11;100888.17;;;12.68;41.81
82152;BME280;71721;47.904;-122.188;2023-08-07T07:23:36;100886.92;;;11.09;43.50
82152;BME280;71721;47.904;-122.188;2023-08-07T07:26:02;100885.59;;;11.64;43.33
82152;BME280;71721;47.904;-122.188;2023-08-07T07:28:28;100891.46;;;11.71;42.97
82152;BME280;71721;47.904;-122.188;2023-08-07T07:30:52;100895.99;;;13.79;40.99
82152;BME280;71721;47.904;-122.188;2023-08-07T07:33:18;100895.27;;;13.95;40.58
82152;BME280;71721;47.904;-122.188;2023-08-07T07:35:43;100897.79;;;13.87;40.40
82152;BME280;71721;47.904;-122.188;2023-08-07T07:38:08;100898.55;;;13.92;40.30
82152;BME280;71721;47.904;-122.188;2023-08-07T07:40:35;100900.07;;;13.54;40.46
82152;BME280;71721;47.904;-122.188;2023-08-07T07:43:00;100898.52;;;14.06;40.59
82152;BME280;71721;47.904;-122.188;2023-08-07T07:45:24;100899.48;;;13.94;40.63
82152;BME280;71721;47.904;-122.188;2023-08-07T07:47:50;100899.85;;;13.76;40.93
82152;BME280;71721;47.904;-122.188;2023-08-07T07:50:25;100896.98;;;13.57;40.53
82152;BME280;71721;47.904;-122.188;2023-08-07T07:52:40;100898.27;;;10.59;44.03
82152;BME280;71721;47.904;-122.188;2023-08-07T07:55:06;100897.13;;;12.85;41.70
82152;BME280;71721;47.904;-122.188;2023-08-07T07:57:33;100895.52;;;12.31;42.29
82152;BME280;71721;47.904;-122.188;2023-08-07T08:00:02;100894.07;;;13.17;41.60
82152;BME280;71721;47.904;-122.188;2023-08-07T08:02:23;100894.45;;;13.23;41.24
82152;BME280;71721;47.904;-122.188;2023-08-07T08:04:46;100890.04;;;13.92;40.52
82152;BME280;71721;47.904;-122.188;2023-08-07T08:07:12;100891.59;;;13.69;40.64
82152;BME280;71721;47.904;-122.188;2023-08-07T08:09:37;100888.68;;;13.77;40.99
82152;BME280;71721;47.904;-122.188;2023-08-07T08:12:04;100886.49;;;13.57;40.88
82152;BME280;71721;47.904;-122.188;2023-08-07T08:14:28;100884.01;;;13.77;41.02
82152;BME280;71721;47.904;-122.188;2023-08-07T08:16:53;100887.75;;;13.46;41.49
82152;BME280;71721;47.904;-122.188;2023-08-07T08:19:18;100886.18;;;13.82;41.46
82152;BME280;71721;47.904;-122.188;2023-08-07T08:21:44;100887.97;;;12.93;42.31
82152;BME280;71721;47.904;-122.188;2023-08-07T08:24:09;100889.25;;;13.27;42.16
82152;BME280;71721;47.904;-122.188;2023-08-07T08:26:34;100888.79;;;13.27;41.97
82152;BME280;71721;47.904;-122.188;2023-08-07T08:29:01;100885.96;;;12.95;42.41
82152;BME280;71721;47.904;-122.188;2023-08-07T08:31:24;100889.32;;;11.40;44.75
82152;BME280;71721;47.904;-122.188;2023-08-07T08:33:50;100891.91;;;11.38;45.26
82152;BME280;71721;47.904;-122.188;2023-08-07T08:36:16;100893.68;;;10.79;46.42
82152;BME280;71721;47.904;-122.188;2023-08-07T08:38:41;100892.75;;;10.72;46.42
82152;BME280;71721;47.904;-122.188;2023-08-07T08:41:12;100890.51;;;11.01;45.67
82152;BME280;71721;47.904;-122.188;2023-08-07T08:43:34;100889.70;;;12.87;43.41
82152;BME280;71721;47.904;-122.188;2023-08-07T08:45:56;100892.13;;;12.79;43.49
82152;BME280;71721;47.904;-122.188;2023-08-07T08:48:22;100891.07;;;12.97;42.72
82152;BME280;71721;47.904;-122.188;2023-08-07T08:50:47;100895.24;;;12.60;43.37
82152;BME280;71721;47.904;-122.188;2023-08-07T08:53:13;100900.87;;;13.21;42.80
82152;BME280;71721;47.904;-122.188;2023-08-07T08:55:37;100903.84;;;13.49;42.33
82152;BME280;71721;47.904;-122.188;2023-08-07T08:58:03;100901.99;;;13.44;42.19
82152;BME280;71721;47.904;-122.188;2023-08-07T09:00:28;100899.50;;;12.17;43.36
82152;BME280;71721;47.904;-122.188;2023-08-07T09:02:53;100897.07;;;13.58;42.16
82152;BME280;71721;47.904;-122.188;2023-08-07T09:05:20;100894.73;;;13.64;41.56
82152;BME280;71721;47.904;-122.188;2023-08-07T09:07:52;100896.09;;;12.45;43.05
82152;BME280;71721;47.904;-122.188;2023-08-07T09:10:11;100897.36;;;13.48;41.93
82152;BME280;71721;47.904;-122.188;2023-08-07T09:12:35;100899.67;;;11.30;45.92
82152;BME280;71721;47.904;-122.188;2023-08-07T09:15:02;100898.19;;;11.97;46.14
82152;BME280;71721;47.904;-122.188;2023-08-07T09:17:27;100893.54;;;11.08;46.75
82152;BME280;71721;47.904;-122.188;2023-08-07T09:19:50;100892.13;;;11.16;46.88
82152;BME280;71721;47.904;-122.188;2023-08-07T09:22:23;100887.73;;;11.69;46.16
82152;BME280;71721;47.904;-122.188;2023-08-07T09:24:41;100880.93;;;12.08;45.94
82152;BME280;71721;47.904;-122.188;2023-08-07T09:27:08;100888.53;;;12.40;45.01
82152;BME280;71721;47.904;-122.188;2023-08-07T09:29:32;100885.90;;;10.99;47.46
82152;BME280;71721;47.904;-122.188;2023-08-07T09:32:06;100888.42;;;11.14;47.86
82152;BME280;71721;47.904;-122.188;2023-08-07T09:34:22;100887.67;;;12.01;46.36
82152;BME280;71721;47.904;-122.188;2023-08-07T09:36:49;100886.90;;;11.22;47.08
82152;BME280;71721;47.904;-122.188;2023-08-07T09:39:18;100886.31;;;11.10;47.59
82152;BME280;71721;47.904;-122.188;2023-08-07T09:41:38;100887.50;;;11.85;46.22
82152;BME280;71721;47.904;-122.188;2023-08-07T09:44:18;100885.62;;;12.01;46.34
82152;BME280;71721;47.904;-122.188;2023-08-07T09:46:28;100888.99;;;8.86;50.53
82152;BME280;71721;47.904;-122.188;2023-08-07T09:48:58;100883.55;;;10.82;48.30
82152;BME280;71721;47.904;-122.188;2023-08-07T09:51:18;100884.10;;;11.61;47.19
82152;BME280;71721;47.904;-122.188;2023-08-07T09:53:44;100884.86;;;12.11;46.11
82152;BME280;71721;47.904;-122.188;2023-08-07T09:56:10;100883.90;;;12.44;44.88
82152;BME280;71721;47.904;-122.188;2023-08-07T09:58:37;100883.43;;;13.09;44.27
82152;BME280;71721;47.904;-122.188;2023-08-07T10:01:02;100890.60;;;13.41;43.60
82152;BME280;71721;47.904;-122.188;2023-08-07T10:03:25;100896.57;;;12.68;45.48
82152;BME280;71721;47.904;-122.188;2023-08-07T10:05:51;100899.23;;;11.44;46.56
82152;BME280;71721;47.904;-122.188;2023-08-07T10:08:16;100900.57;;;11.06;48.78
82152;BME280;71721;47.904;-122.188;2023-08-07T10:10:41;100896.86;;;11.02;48.04
82152;BME280;71721;47.904;-122.188;2023-08-07T10:13:06;100904.11;;;11.12;48.62
82152;BME280;71721;47.904;-122.188;2023-08-07T10:15:33;100901.66;;;11.43;48.01
82152;BME280;71721;47.904;-122.188;2023-08-07T10:17:57;100900.88;;;12.19;46.59
82152;BME280;71721;47.904;-122.188;2023-08-07T10:20:22;100910.96;;;10.36;50.36
82152;BME280;71721;47.904;-122.188;2023-08-07T10:22:47;100908.49;;;9.11;53.50
82152;BME280;71721;47.904;-122.188;2023-08-07T10:25:16;100906.22;;;10.13;51.53
82152;BME280;71721;47.904;-122.188;2023-08-07T10:27:45;100901.54;;;7.61;55.70
82152;BME280;71721;47.904;-122.188;2023-08-07T10:30:07;100900.36;;;9.80;51.94
82152;BME280;71721;47.904;-122.188;2023-08-07T10:32:29;100891.50;;;10.61;50.71
82152;BME280;71721;47.904;-122.188;2023-08-07T10:34:54;100887.66;;;10.49;50.63
82152;BME280;71721;47.904;-122.188;2023-08-07T10:37:34;100881.16;;;10.79;49.23
82152;BME280;71721;47.904;-122.188;2023-08-07T10:40:02;100880.95;;;10.86;49.75
82152;BME280;71721;47.904;-122.188;2023-08-07T10:42:17;100872.16;;;12.03;47.65
82152;BME280;71721;47.904;-122.188;2023-08-07T10:44:48;100864.96;;;11.89;47.51
82152;BME280;71721;47.904;-122.188;2023-08-07T10:47:02;100876.26;;;9.68;52.18
82152;BME280;71721;47.904;-122.188;2023-08-07T10:49:33;100882.35;;;9.17;53.30
82152;BME280;71721;47.904;-122.188;2023-08-07T10:51:51;100882.90;;;10.03;52.03
82152;BME280;71721;47.904;-122.188;2023-08-07T10:54:16;100884.03;;;10.20;51.70
82152;BME280;71721;47.904;-122.188;2023-08-07T10:56:41;100877.08;;;9.57;53.25
82152;BME280;71721;47.904;-122.188;2023-08-07T10:59:14;100873.29;;;9.68;52.55
82152;BME280;71721;47.904;-122.188;2023-08-07T11:01:42;100865.09;;;11.43;49.64
82152;BME280;71721;47.904;-122.188;2023-08-07T11:03:59;100862.29;;;10.87;49.58
82152;BME280;71721;47.904;-122.188;2023-08-07T11:06:24;100866.50;;;9.74;51.51
82152;BME280;71721;47.904;-122.188;2023-08-07T11:08:51;100867.37;;;9.14;52.53
82152;BME280;71721;47.904;-122.188;2023-08-07T11:11:18;100858.65;;;9.71;51.22
82152;BME280;71721;47.904;-122.188;2023-08-07T11:13:38;100854.20;;;10.15;50.81
82152;BME280;71721;47.904;-122.188;2023-08-07T11:16:04;100855.43;;;10.31;50.46
82152;BME280;71721;47.904;-122.188;2023-08-07T11:18:29;100855.97;;;11.77;48.31
82152;BME280;71721;47.904;-122.188;2023-08-07T11:20:55;100855.89;;;11.23;48.75
82152;BME280;71721;47.904;-122.188;2023-08-07T11:23:24;100851.69;;;12.26;47.24
82152;BME280;71721;47.904;-122.188;2023-08-07T11:25:45;100844.97;;;10.63;49.21
82152;BME280;71721;47.904;-122.188;2023-08-07T11:28:10;100840.23;;;9.82;50.68
82152;BME280;71721;47.904;-122.188;2023-08-07T11:30:35;100851.06;;;10.74;49.38
82152;BME280;71721;47.904;-122.188;2023-08-07T11:33:00;100859.02;;;10.24;51.19
82152;BME280;71721;47.904;-122.188;2023-08-07T11:35:26;100868.49;;;9.65;52.82
82152;BME280;71721;47.904;-122.188;2023-08-07T11:37:51;100873.38;;;9.71;52.57
82152;BME280;71721;47.904;-122.188;2023-08-07T11:40:17;100871.21;;;7.97;56.09
82152;BME280;71721;47.904;-122.188;2023-08-07T11:42:42;100870.48;;;8.16;56.09
82152;BME280;71721;47.904;-122.188;2023-08-07T11:45:09;100871.00;;;8.68;55.70
82152;BME280;71721;47.904;-122.188;2023-08-07T11:47:35;100875.66;;;9.47;55.35
82152;BME280;71721;47.904;-122.188;2023-08-07T11:49:59;100870.94;;;8.90;55.62
82152;BME280;71721;47.904;-122.188;2023-08-07T11:52:24;100872.64;;;7.38;58.66
82152;BME280;71721;47.904;-122.188;2023-08-07T11:54:48;100862.47;;;9.92;54.04
82152;BME280;71721;47.904;-122.188;2023-08-07T11:57:17;100857.15;;;9.18;53.73
82152;BME280;71721;47.904;-122.188;2023-08-07T11:59:40;100856.64;;;8.11;55.17
82152;BME280;71721;47.904;-122.188;2023-08-07T12:02:10;100855.56;;;11.05;50.92
82152;BME280;71721;47.904;-122.188;2023-08-07T12:04:31;100864.46;;;8.87;54.24
82152;BME280;71721;47.904;-122.188;2023-08-07T12:06:56;100869.32;;;8.26;56.57
82152;BME280;71721;47.904;-122.188;2023-08-07T12:09:27;100867.70;;;9.60;53.28
82152;BME280;71721;47.904;-122.188;2023-08-07T12:11:45;100861.69;;;8.82;55.09